sensor_id;sensor_type;location;lat;lon;timestamp;pressure;altitude;pressure_sealevel;temperature;humidity
12913;BME280;6524;51.368;11.984;2022-08-25T04:05:25;100643.06;;;20.53;91.54
12913;BME280;6524;51.368;11.984;2022-08-25T04:10:25;100646.41;;;20.43;92.42
12913;BME280;6524;51.368;11.984;2022-08-25T04:15:26;100648.34;;;20.41;92.16
12913;BME280;6524;51.368;11.984;2022-08-25T04:20:26;100652.81;;;20.40;92.60
12913;BME280;6524;51.368;11.984;2022-08-25T04:25:26;100638.47;;;20.43;93.03
12913;BME280;6524;51.368;11.984;2022-08-25T04:30:27;100648.34;;;20.28;93.27
12913;BME280;6524;51.368;11.984;2022-08-25T04:35:27;100645.78;;;20.26;94.91
12913;BME280;6524;51.368;11.984;2022-08-25T04:40:27;100644.09;;;20.38;96.29
12913;BME280;6524;51.368;11.984;2022-08-25T04:45:28;100657.44;;;20.49;94.60
12913;BME280;6524;51.368;11.984;2022-08-25T04:50:28;100651.75;;;20.55;95.10
12913;BME280;6524;51.368;11.984;2022-08-25T04:55:28;100660.44;;;20.58;93.72
12913;BME280;6524;51.368;11.984;2022-08-25T05:00:29;100657.19;;;21.03;90.84
12913;BME280;6524;51.368;11.984;2022-08-25T05:05:30;100658.97;;;21.16;87.66
12913;BME280;6524;51.368;11.984;2022-08-25T05:10:32;100661.59;;;21.16;87.38
12913;BME280;6524;51.368;11.984;2022-08-25T05:15:32;100651.84;;;21.16;88.49
12913;BME280;6524;51.368;11.984;2022-08-25T05:20:51;100646.59;;;21.03;89.28
12913;BME280;6524;51.368;11.984;2022-08-25T05:26:14;100634.88;;;21.19;88.83
12913;BME280;6524;51.368;11.984;2022-08-25T05:31:15;100637.47;;;21.56;87.13
12913;BME280;6524;51.368;11.984;2022-08-25T05:36:17;100639.25;;;21.79;86.32
12913;BME280;6524;51.368;11.984;2022-08-25T05:41:20;100650.72;;;21.80;89.79
12913;BME280;6524;51.368;11.984;2022-08-25T05:46:22;100647.78;;;22.07;92.25
12913;BME280;6524;51.368;11.984;2022-08-25T05:51:22;100652.56;;;21.90;95.74
12913;BME280;6524;51.368;11.984;2022-08-25T05:56:22;100657.75;;;22.16;94.03
12913;BME280;6524;51.368;11.984;2022-08-25T06:01:26;100660.06;;;22.43;93.29
12913;BME280;6524;51.368;11.984;2022-08-25T06:06:45;100657.31;;;22.67;91.92
12913;BME280;6524;51.368;11.984;2022-08-25T06:11:46;100657.28;;;22.90;90.73
12913;BME280;6524;51.368;11.984;2022-08-25T06:16:47;100656.72;;;23.41;87.89
12913;BME280;6524;51.368;11.984;2022-08-25T06:21:55;100661.06;;;23.85;86.01
12913;BME280;6524;51.368;11.984;2022-08-25T06:26:55;100653.75;;;24.19;84.17
12913;BME280;6524;51.368;11.984;2022-08-25T06:31:56;100648.28;;;24.42;83.33
12913;BME280;6524;51.368;11.984;2022-08-25T06:36:56;100643.63;;;24.75;81.36
12913;BME280;6524;51.368;11.984;2022-08-25T06:41:57;100641.97;;;25.24;79.57
12913;BME280;6524;51.368;11.984;2022-08-25T06:46:57;100643.22;;;25.20;80.24
12913;BME280;6524;51.368;11.984;2022-08-25T06:51:58;100643.81;;;25.23;79.97
12913;BME280;6524;51.368;11.984;2022-08-25T06:56:58;100639.88;;;25.56;78.44
12913;BME280;6524;51.368;11.984;2022-08-25T07:02:00;100633.97;;;25.82;78.41
12913;BME280;6524;51.368;11.984;2022-08-25T07:07:02;100640.13;;;26.12;76.72
12913;BME280;6524;51.368;11.984;2022-08-25T07:12:02;100649.97;;;26.21;77.32
12913;BME280;6524;51.368;11.984;2022-08-25T07:17:03;100650.56;;;26.62;75.81
12913;BME280;6524;51.368;11.984;2022-08-25T07:22:04;100649.22;;;27.84;69.62
12913;BME280;6524;51.368;11.984;2022-08-25T07:27:04;100652.91;;;30.04;61.33
12913;BME280;6524;51.368;11.984;2022-08-25T07:32:05;100655.75;;;29.61;62.60
12913;BME280;6524;51.368;11.984;2022-08-25T07:37:05;100652.78;;;31.08;58.31
12913;BME280;6524;51.368;11.984;2022-08-25T07:42:06;100661.72;;;33.77;49.88
12913;BME280;6524;51.368;11.984;2022-08-25T07:47:06;100662.28;;;33.30;50.97
12913;BME280;6524;51.368;11.984;2022-08-25T07:52:07;100661.97;;;31.53;55.45
12913;BME280;6524;51.368;11.984;2022-08-25T07:57:08;100646.91;;;30.65;58.00
12913;BME280;6524;51.368;11.984;2022-08-25T08:02:10;100639.81;;;30.64;58.79
12913;BME280;6524;51.368;11.984;2022-08-25T08:07:15;100632.28;;;29.71;61.46
12913;BME280;6524;51.368;11.984;2022-08-25T08:12:16;100643.50;;;29.59;62.80
12913;BME280;6524;51.368;11.984;2022-08-25T08:17:16;100636.22;;;29.18;63.99
12913;BME280;6524;51.368;11.984;2022-08-25T08:22:17;100629.50;;;28.80;65.37
12913;BME280;6524;51.368;11.984;2022-08-25T08:27:17;100623.00;;;28.48;67.13
12913;BME280;6524;51.368;11.984;2022-08-25T08:32:19;100615.88;;;28.31;67.89
12913;BME280;6524;51.368;11.984;2022-08-25T08:37:19;100616.66;;;28.49;68.27
12913;BME280;6524;51.368;11.984;2022-08-25T08:43:01;100607.03;;;29.40;64.67
12913;BME280;6524;51.368;11.984;2022-08-25T08:48:23;100612.75;;;29.53;62.45
12913;BME280;6524;51.368;11.984;2022-08-25T08:53:53;100613.94;;;29.83;61.43
12913;BME280;6524;51.368;11.984;2022-08-25T08:59:02;100610.06;;;29.61;62.40
12913;BME280;6524;51.368;11.984;2022-08-25T09:09:11;100605.38;;;29.88;61.75
12913;BME280;6524;51.368;11.984;2022-08-25T09:25:44;100599.22;;;28.96;63.86
12913;BME280;6524;51.368;11.984;2022-08-25T09:30:55;100593.25;;;29.51;62.61
12913;BME280;6524;51.368;11.984;2022-08-25T09:35:57;100594.25;;;29.42;63.44
12913;BME280;6524;51.368;11.984;2022-08-25T09:41:00;100601.09;;;30.82;58.72
12913;BME280;6524;51.368;11.984;2022-08-25T09:46:02;100588.34;;;31.68;56.40
12913;BME280;6524;51.368;11.984;2022-08-25T09:51:32;100580.41;;;31.28;57.23
12913;BME280;6524;51.368;11.984;2022-08-25T10:01:58;100573.41;;;33.63;52.25
12913;BME280;6524;51.368;11.984;2022-08-25T10:07:00;100570.19;;;34.09;49.68
12913;BME280;6524;51.368;11.984;2022-08-25T10:12:01;100560.91;;;34.31;48.95
12913;BME280;6524;51.368;11.984;2022-08-25T10:17:17;100552.88;;;35.06;45.90
12913;BME280;6524;51.368;11.984;2022-08-25T10:22:26;100554.50;;;35.00;46.18
12913;BME280;6524;51.368;11.984;2022-08-25T10:43:40;100517.63;;;35.73;44.31
12913;BME280;6524;51.368;11.984;2022-08-25T10:48:46;100523.78;;;34.60;45.94
12913;BME280;6524;51.368;11.984;2022-08-25T10:54:16;100510.69;;;33.53;49.36
12913;BME280;6524;51.368;11.984;2022-08-25T11:09:40;100500.16;;;33.99;47.22
12913;BME280;6524;51.368;11.984;2022-08-25T11:14:54;100484.44;;;34.84;45.20
12913;BME280;6524;51.368;11.984;2022-08-25T11:19:59;100489.50;;;35.07;44.66
12913;BME280;6524;51.368;11.984;2022-08-25T11:30:13;100474.63;;;34.15;46.85
12913;BME280;6524;51.368;11.984;2022-08-25T11:35:16;100474.47;;;33.82;45.58
12913;BME280;6524;51.368;11.984;2022-08-25T11:46:12;100458.63;;;35.15;43.29
12913;BME280;6524;51.368;11.984;2022-08-25T11:51:39;100457.31;;;34.64;43.54
12913;BME280;6524;51.368;11.984;2022-08-25T11:56:41;100452.81;;;34.23;44.45
12913;BME280;6524;51.368;11.984;2022-08-25T12:17:37;100440.72;;;36.44;40.36
12913;BME280;6524;51.368;11.984;2022-08-25T12:22:39;100438.56;;;37.16;38.16
12913;BME280;6524;51.368;11.984;2022-08-25T12:27:48;100421.78;;;37.19;37.98
12913;BME280;6524;51.368;11.984;2022-08-25T12:38:24;100406.00;;;37.53;37.84
12913;BME280;6524;51.368;11.984;2022-08-25T12:43:29;100400.97;;;37.86;36.31
12913;BME280;6524;51.368;11.984;2022-08-25T12:53:35;100408.34;;;37.49;37.63
12913;BME280;6524;51.368;11.984;2022-08-25T13:14:43;100386.06;;;33.96;42.88
12913;BME280;6524;51.368;11.984;2022-08-25T13:19:44;100388.91;;;34.22;43.62
12913;BME280;6524;51.368;11.984;2022-08-25T13:24:46;100373.69;;;34.35;42.60
12913;BME280;6524;51.368;11.984;2022-08-25T13:29:55;100376.88;;;34.78;41.60
12913;BME280;6524;51.368;11.984;2022-08-25T13:35:17;100371.78;;;35.61;40.39
12913;BME280;6524;51.368;11.984;2022-08-25T13:45:22;100363.38;;;35.69;40.07
12913;BME280;6524;51.368;11.984;2022-08-25T14:00:37;100335.94;;;35.91;39.02
12913;BME280;6524;51.368;11.984;2022-08-25T14:05:42;100331.28;;;35.60;39.04
12913;BME280;6524;51.368;11.984;2022-08-25T14:10:43;100328.69;;;35.27;40.27
12913;BME280;6524;51.368;11.984;2022-08-25T14:15:44;100315.81;;;34.82;41.39
12913;BME280;6524;51.368;11.984;2022-08-25T14:20:48;100313.69;;;35.17;40.51
12913;BME280;6524;51.368;11.984;2022-08-25T14:25:50;100309.72;;;35.20;39.99
12913;BME280;6524;51.368;11.984;2022-08-25T14:31:08;100315.06;;;35.40;38.90
12913;BME280;6524;51.368;11.984;2022-08-25T14:36:10;100303.75;;;35.56;39.19
12913;BME280;6524;51.368;11.984;2022-08-25T14:41:10;100297.03;;;35.65;38.67
12913;BME280;6524;51.368;11.984;2022-08-25T14:46:24;100293.84;;;35.75;37.35
12913;BME280;6524;51.368;11.984;2022-08-25T14:51:27;100291.66;;;35.52;38.92
12913;BME280;6524;51.368;11.984;2022-08-25T14:56:29;100280.44;;;35.42;39.90
12913;BME280;6524;51.368;11.984;2022-08-25T15:01:29;100273.06;;;35.04;40.53
12913;BME280;6524;51.368;11.984;2022-08-25T15:06:30;100272.25;;;34.77;40.59
12913;BME280;6524;51.368;11.984;2022-08-25T15:11:31;100266.47;;;34.60;41.46
12913;BME280;6524;51.368;11.984;2022-08-25T15:16:37;100254.09;;;33.98;41.93
12913;BME280;6524;51.368;11.984;2022-08-25T15:21:39;100251.31;;;33.65;42.84
12913;BME280;6524;51.368;11.984;2022-08-25T15:26:43;100249.50;;;33.30;43.29
12913;BME280;6524;51.368;11.984;2022-08-25T15:31:45;100245.69;;;33.11;43.61
12913;BME280;6524;51.368;11.984;2022-08-25T15:36:46;100239.81;;;33.01;43.31
12913;BME280;6524;51.368;11.984;2022-08-25T15:41:46;100230.84;;;32.94;43.60
12913;BME280;6524;51.368;11.984;2022-08-25T15:46:51;100236.38;;;32.86;45.19
12913;BME280;6524;51.368;11.984;2022-08-25T15:51:54;100236.84;;;32.96;44.94
12913;BME280;6524;51.368;11.984;2022-08-25T15:56:55;100233.47;;;32.87;45.25
12913;BME280;6524;51.368;11.984;2022-08-25T16:01:56;100226.41;;;32.86;45.28
12913;BME280;6524;51.368;11.984;2022-08-25T16:06:56;100231.38;;;32.83;44.50
12913;BME280;6524;51.368;11.984;2022-08-25T16:11:57;100224.81;;;32.64;46.00
12913;BME280;6524;51.368;11.984;2022-08-25T16:16:57;100213.50;;;32.47;47.08
12913;BME280;6524;51.368;11.984;2022-08-25T16:21:58;100215.63;;;32.30;47.04
12913;BME280;6524;51.368;11.984;2022-08-25T16:26:59;100222.03;;;32.01;47.77
12913;BME280;6524;51.368;11.984;2022-08-25T16:32:04;100214.78;;;31.87;47.99
12913;BME280;6524;51.368;11.984;2022-08-25T16:37:06;100212.94;;;31.66;48.03
12913;BME280;6524;51.368;11.984;2022-08-25T16:42:07;100204.38;;;31.41;48.88
12913;BME280;6524;51.368;11.984;2022-08-25T16:47:08;100196.84;;;31.36;49.26
12913;BME280;6524;51.368;11.984;2022-08-25T16:52:08;100200.28;;;31.30;50.14
12913;BME280;6524;51.368;11.984;2022-08-25T16:57:27;100207.81;;;31.20;50.31
12913;BME280;6524;51.368;11.984;2022-08-25T17:02:27;100195.19;;;31.05;51.77
12913;BME280;6524;51.368;11.984;2022-08-25T17:07:28;100199.97;;;30.88;52.39
12913;BME280;6524;51.368;11.984;2022-08-25T17:12:28;100202.63;;;30.74;53.06
12913;BME280;6524;51.368;11.984;2022-08-25T17:22:41;100205.88;;;30.54;53.39
12913;BME280;6524;51.368;11.984;2022-08-25T17:27:42;100205.00;;;30.39;54.38
12913;BME280;6524;51.368;11.984;2022-08-25T17:37:46;100211.88;;;30.04;55.60
12913;BME280;6524;51.368;11.984;2022-08-25T17:42:47;100208.69;;;30.00;56.17
12913;BME280;6524;51.368;11.984;2022-08-25T17:47:47;100202.06;;;29.88;56.54
12913;BME280;6524;51.368;11.984;2022-08-25T17:52:48;100202.78;;;29.82;56.91
12913;BME280;6524;51.368;11.984;2022-08-25T17:57:49;100204.22;;;29.69;57.16
12913;BME280;6524;51.368;11.984;2022-08-25T18:02:50;100208.66;;;29.62;57.60
12913;BME280;6524;51.368;11.984;2022-08-25T18:07:50;100217.97;;;29.43;58.52
12913;BME280;6524;51.368;11.984;2022-08-25T18:12:51;100214.50;;;29.26;58.72
12913;BME280;6524;51.368;11.984;2022-08-25T18:17:52;100211.88;;;29.18;59.33
12913;BME280;6524;51.368;11.984;2022-08-25T18:22:56;100219.59;;;29.13;59.30
12913;BME280;6524;51.368;11.984;2022-08-25T18:27:59;100213.63;;;29.03;59.85
12913;BME280;6524;51.368;11.984;2022-08-25T18:32:59;100220.34;;;28.91;60.05
12913;BME280;6524;51.368;11.984;2022-08-25T18:38:00;100223.72;;;28.85;60.92
12913;BME280;6524;51.368;11.984;2022-08-25T18:43:18;100235.81;;;28.72;61.49
12913;BME280;6524;51.368;11.984;2022-08-25T18:48:20;100227.81;;;28.56;62.63
12913;BME280;6524;51.368;11.984;2022-08-25T18:53:25;100236.19;;;28.45;63.06
12913;BME280;6524;51.368;11.984;2022-08-25T18:58:26;100236.84;;;28.38;62.38
12913;BME280;6524;51.368;11.984;2022-08-25T19:03:26;100236.34;;;28.35;63.67
12913;BME280;6524;51.368;11.984;2022-08-25T19:08:27;100244.91;;;28.30;63.92
12913;BME280;6524;51.368;11.984;2022-08-25T19:13:28;100239.88;;;28.27;63.96
12913;BME280;6524;51.368;11.984;2022-08-25T19:18:28;100245.75;;;28.14;64.55
12913;BME280;6524;51.368;11.984;2022-08-25T19:23:29;100260.31;;;28.12;64.83
12913;BME280;6524;51.368;11.984;2022-08-25T19:28:30;100238.84;;;28.04;65.36
12913;BME280;6524;51.368;11.984;2022-08-25T19:33:31;100235.81;;;27.82;66.34
12913;BME280;6524;51.368;11.984;2022-08-25T19:38:32;100224.59;;;27.79;66.40
12913;BME280;6524;51.368;11.984;2022-08-25T19:43:32;100228.91;;;27.72;66.20
12913;BME280;6524;51.368;11.984;2022-08-25T19:48:33;100229.03;;;27.54;67.38
12913;BME280;6524;51.368;11.984;2022-08-25T19:53:33;100225.81;;;27.42;68.22
12913;BME280;6524;51.368;11.984;2022-08-25T19:58:34;100234.72;;;27.42;67.69
12913;BME280;6524;51.368;11.984;2022-08-25T20:03:34;100233.66;;;27.35;67.66
12913;BME280;6524;51.368;11.984;2022-08-25T20:08:34;100246.22;;;27.27;68.24
12913;BME280;6524;51.368;11.984;2022-08-25T20:13:35;100243.59;;;27.09;68.75
12913;BME280;6524;51.368;11.984;2022-08-25T20:18:35;100253.19;;;26.93;69.69
12913;BME280;6524;51.368;11.984;2022-08-25T20:23:35;100248.09;;;26.82;70.48
12913;BME280;6524;51.368;11.984;2022-08-25T20:28:55;100250.78;;;26.82;69.99
12913;BME280;6524;51.368;11.984;2022-08-25T20:33:56;100263.75;;;26.69;70.38
12913;BME280;6524;51.368;11.984;2022-08-25T20:38:57;100266.91;;;26.64;70.66
12913;BME280;6524;51.368;11.984;2022-08-25T20:43:57;100265.41;;;26.70;70.47
12913;BME280;6524;51.368;11.984;2022-08-25T20:48:58;100265.84;;;26.57;71.13
12913;BME280;6524;51.368;11.984;2022-08-25T20:53:58;100271.50;;;26.54;70.92
12913;BME280;6524;51.368;11.984;2022-08-25T20:58:59;100274.94;;;26.46;71.24
12913;BME280;6524;51.368;11.984;2022-08-25T21:03:59;100273.88;;;26.39;71.28
12913;BME280;6524;51.368;11.984;2022-08-25T21:09:03;100277.84;;;26.35;71.55
12913;BME280;6524;51.368;11.984;2022-08-25T21:14:04;100265.94;;;26.29;71.82
12913;BME280;6524;51.368;11.984;2022-08-25T21:19:06;100269.78;;;26.27;72.28
12913;BME280;6524;51.368;11.984;2022-08-25T21:24:07;100265.66;;;26.15;72.79
12913;BME280;6524;51.368;11.984;2022-08-25T21:29:09;100259.56;;;26.04;73.21
12913;BME280;6524;51.368;11.984;2022-08-25T21:34:10;100256.50;;;25.99;73.78
12913;BME280;6524;51.368;11.984;2022-08-25T21:39:12;100252.75;;;25.92;74.02
12913;BME280;6524;51.368;11.984;2022-08-25T21:44:13;100245.34;;;25.86;74.81
12913;BME280;6524;51.368;11.984;2022-08-25T21:49:13;100240.88;;;25.77;75.08
12913;BME280;6524;51.368;11.984;2022-08-25T21:54:16;100231.34;;;25.74;75.53
12913;BME280;6524;51.368;11.984;2022-08-25T21:59:22;100249.34;;;25.72;76.33
12913;BME280;6524;51.368;11.984;2022-08-25T22:04:23;100244.97;;;25.53;77.02
12913;BME280;6524;51.368;11.984;2022-08-25T22:09:24;100245.84;;;25.44;77.61
12913;BME280;6524;51.368;11.984;2022-08-25T22:14:25;100249.81;;;25.40;78.02
12913;BME280;6524;51.368;11.984;2022-08-25T22:19:26;100241.28;;;25.36;78.14
12913;BME280;6524;51.368;11.984;2022-08-25T22:24:27;100242.56;;;25.32;78.09
12913;BME280;6524;51.368;11.984;2022-08-25T22:29:27;100240.63;;;25.25;78.50
12913;BME280;6524;51.368;11.984;2022-08-25T22:34:30;100236.88;;;25.08;79.30
12913;BME280;6524;51.368;11.984;2022-08-25T22:39:32;100234.84;;;24.92;80.40
12913;BME280;6524;51.368;11.984;2022-08-25T22:44:32;100231.34;;;24.91;80.17
12913;BME280;6524;51.368;11.984;2022-08-25T22:49:32;100224.22;;;24.82;80.57
12913;BME280;6524;51.368;11.984;2022-08-25T22:54:35;100222.69;;;24.80;80.93
12913;BME280;6524;51.368;11.984;2022-08-25T22:59:36;100211.31;;;24.78;81.04
12913;BME280;6524;51.368;11.984;2022-08-25T23:04:37;100214.97;;;24.77;81.62
12913;BME280;6524;51.368;11.984;2022-08-25T23:09:37;100214.69;;;24.80;81.35
12913;BME280;6524;51.368;11.984;2022-08-25T23:14:38;100208.25;;;24.73;81.81
12913;BME280;6524;51.368;11.984;2022-08-25T23:19:38;100206.75;;;24.60;82.43
12913;BME280;6524;51.368;11.984;2022-08-25T23:24:41;100199.59;;;24.51;82.96
12913;BME280;6524;51.368;11.984;2022-08-25T23:29:43;100191.34;;;24.44;82.49
12913;BME280;6524;51.368;11.984;2022-08-25T23:34:45;100185.59;;;24.30;82.78
12913;BME280;6524;51.368;11.984;2022-08-25T23:39:46;100179.59;;;24.08;83.64
12913;BME280;6524;51.368;11.984;2022-08-25T23:44:47;100171.06;;;23.95;84.37
12913;BME280;6524;51.368;11.984;2022-08-25T23:49:48;100168.50;;;24.03;83.58
12913;BME280;6524;51.368;11.984;2022-08-25T23:54:48;100160.50;;;24.03;83.87
12913;BME280;6524;51.368;11.984;2022-08-25T23:59:49;100171.63;;;23.89;85.40
